Time;durP1;ratioP1;P1;durP2;ratioP2;P2;SDS_P1;SDS_P2;PMS_P1;PMS_P2;Temp;Humidity;BMP_temperature;BMP_pressure;BME280_temperature;BME280_humidity;BME280_pressure;Samples;Min_cycle;Max_cycle;Signal;HPM_P1;HPM_P2
2022/08/09 00:02:11;;;;;;;;;;;21.40;68.30;;;;;;4983793;28;19989;-92
2022/08/09 00:04:38;;;;;;;;;;;21.30;68.30;;;;;;4982685;28;19915;-91
2022/08/09 00:07:07;;;;;;;;;;;21.30;68.30;;;;;;4979799;28;19944;-91
2022/08/09 00:09:34;;;;;;;;;;;21.30;68.40;;;;;;4984053;28;19926;-90
2022/08/09 00:12:01;;;;;;;;;;;21.20;68.40;;;;;;4984467;28;19926;-90
2022/08/09 00:14:28;;;;;;;;;;;21.20;68.50;;;;;;4983112;28;19930;-91
2022/08/09 00:16:55;;;;;;;;;;;21.20;68.50;;;;;;4987319;28;19933;-90
2022/08/09 00:19:26;;;;;;;;;;;21.10;68.50;;;;;;4990828;28;19922;-91
2022/08/09 00:21:53;;;;;;;;;;;21.10;68.50;;;;;;4986444;28;19957;-92
2022/08/09 00:24:22;;;;;;;;;;;21.10;68.60;;;;;;4990833;28;19927;-91
2022/08/09 00:26:50;;;;;;;;;;;21.00;68.50;;;;;;4984617;28;19934;-92
2022/08/09 00:32:47;;;;;;;;;;;21.00;68.70;;;;;;4984676;28;20005;-92
2022/08/09 00:35:17;;;;;;;;;;;20.90;68.60;;;;;;4992019;28;19930;-92
2022/08/09 00:37:45;;;;;;;;;;;20.90;68.70;;;;;;4995429;28;19965;-92
2022/08/09 00:40:15;;;;;;;;;;;20.80;68.70;;;;;;4983588;28;19993;-91
2022/08/09 00:42:43;;;;;;;;;;;20.80;68.70;;;;;;4983664;28;19934;-93
2022/08/09 00:48:41;;;;;;;;;;;20.80;69.00;;;;;;4980207;28;19929;-92
2022/08/09 00:51:09;;;;;;;;;;;20.70;69.00;;;;;;4977194;28;19953;-91
2022/08/09 01:20:52;;;;;;;;;;;20.30;69.50;;;;;;4923851;29;19927;-75
2022/08/09 01:23:26;;;;;;;;;;;20.30;69.60;;;;;;4914196;29;20421;-76
2022/08/09 01:25:57;;;;;;;;;;;20.30;69.70;;;;;;4903340;29;19927;-76
2022/08/09 01:28:26;;;;;;;;;;;20.30;69.90;;;;;;4900395;29;20375;-76
2022/08/09 01:30:54;;;;;;;;;;;20.20;69.90;;;;;;4908878;29;19934;-76
2022/08/09 01:33:22;;;;;;;;;;;20.20;70.10;;;;;;4901458;29;19927;-75
2022/08/09 01:35:50;;;;;;;;;;;20.10;70.10;;;;;;4905065;29;20359;-76
2022/08/09 01:38:18;;;;;;;;;;;20.10;70.20;;;;;;4900955;29;19931;-75
2022/08/09 01:40:48;;;;;;;;;;;20.10;70.20;;;;;;4907722;29;20360;-77
2022/08/09 01:43:16;;;;;;;;;;;20.10;70.40;;;;;;4877417;29;20506;-75
2022/08/09 01:45:45;;;;;;;;;;;20.00;70.30;;;;;;4908123;29;19963;-76
2022/08/09 01:48:12;;;;;;;;;;;20.00;70.40;;;;;;4899442;29;19945;-75
2022/08/09 01:50:40;;;;;;;;;;;20.00;70.50;;;;;;4904451;29;20027;-75
2022/08/09 01:53:08;;;;;;;;;;;20.00;70.50;;;;;;4902120;29;19935;-75
2022/08/09 01:55:35;;;;;;;;;;;20.00;70.50;;;;;;4905591;29;20478;-76
2022/08/09 01:58:03;;;;;;;;;;;19.90;70.50;;;;;;4893538;29;19932;-74
2022/08/09 02:00:30;;;;;;;;;;;19.90;70.60;;;;;;4897818;29;19931;-76
2022/08/09 02:02:59;;;;;;;;;;;19.90;70.70;;;;;;4904936;29;20009;-76
2022/08/09 02:05:27;;;;;;;;;;;19.80;70.70;;;;;;4903299;29;20694;-75
2022/08/09 02:07:56;;;;;;;;;;;19.80;70.80;;;;;;4900147;29;20407;-76
2022/08/09 02:10:24;;;;;;;;;;;19.80;70.80;;;;;;4904440;29;19974;-76
2022/08/09 02:12:54;;;;;;;;;;;19.80;70.80;;;;;;4902647;29;20038;-75
2022/08/09 02:15:23;;;;;;;;;;;19.70;70.80;;;;;;4906178;29;20006;-75
2022/08/09 02:17:52;;;;;;;;;;;19.70;70.90;;;;;;4900604;29;20030;-75
2022/08/09 02:20:20;;;;;;;;;;;19.70;70.90;;;;;;4906342;29;19975;-76
2022/08/09 02:22:50;;;;;;;;;;;19.70;71.00;;;;;;4905227;29;19982;-75
2022/08/09 02:25:20;;;;;;;;;;;19.60;71.00;;;;;;4904184;29;19934;-76
2022/08/09 02:27:49;;;;;;;;;;;19.70;71.20;;;;;;4896779;29;20644;-76
2022/08/09 02:30:16;;;;;;;;;;;19.60;71.00;;;;;;4906294;29;19999;-76
2022/08/09 02:32:45;;;;;;;;;;;19.60;71.20;;;;;;4900001;29;20014;-75
2022/08/09 02:35:16;;;;;;;;;;;19.60;71.30;;;;;;4901340;29;20019;-76
2022/08/09 02:37:45;;;;;;;;;;;19.50;71.20;;;;;;4901078;29;19931;-75
2022/08/09 02:40:15;;;;;;;;;;;19.50;71.30;;;;;;4902515;29;19927;-75
2022/08/09 02:42:43;;;;;;;;;;;19.50;71.30;;;;;;4897077;29;20026;-75
2022/08/09 02:45:13;;;;;;;;;;;19.50;71.30;;;;;;4890003;29;20013;-76
2022/08/09 02:47:41;;;;;;;;;;;19.40;71.20;;;;;;4903540;29;20023;-75
2022/08/09 02:50:11;;;;;;;;;;;19.40;71.30;;;;;;4899113;29;20027;-75
2022/08/09 02:52:40;;;;;;;;;;;19.40;71.20;;;;;;4903794;29;19942;-76
2022/08/09 02:55:09;;;;;;;;;;;19.40;71.30;;;;;;4903354;29;20443;-75
2022/08/09 02:57:37;;;;;;;;;;;19.30;71.20;;;;;;4901569;29;19931;-75
2022/08/09 03:00:07;;;;;;;;;;;19.30;71.40;;;;;;4905135;29;19930;-76
2022/08/09 03:02:34;;;;;;;;;;;19.30;72.00;;;;;;4900757;29;20383;-75
2022/08/09 03:05:02;;;;;;;;;;;19.30;71.30;;;;;;4904960;29;20033;-76
2022/08/09 03:07:29;;;;;;;;;;;19.20;71.30;;;;;;4904168;29;19978;-75
2022/08/09 03:09:58;;;;;;;;;;;19.20;71.30;;;;;;4901016;29;20386;-76
2022/08/09 03:12:27;;;;;;;;;;;19.20;72.00;;;;;;4901483;29;19995;-75
2022/08/09 03:14:54;;;;;;;;;;;19.20;71.40;;;;;;4908244;29;19935;-75
2022/08/09 03:17:21;;;;;;;;;;;19.10;71.40;;;;;;4902827;29;19971;-75
2022/08/09 03:19:49;;;;;;;;;;;19.10;71.40;;;;;;4899843;29;20062;-75
2022/08/09 03:22:18;;;;;;;;;;;19.10;71.50;;;;;;4910244;29;19927;-77
2022/08/09 03:24:45;;;;;;;;;;;19.10;71.40;;;;;;4900851;29;20466;-76
2022/08/09 03:27:12;;;;;;;;;;;19.00;72.00;;;;;;4899476;29;20379;-75
2022/08/09 03:29:40;;;;;;;;;;;19.00;71.40;;;;;;4900759;29;19927;-76
2022/08/09 03:32:07;;;;;;;;;;;19.00;71.40;;;;;;4902948;29;19956;-76
2022/08/09 03:34:34;;;;;;;;;;;19.00;71.30;;;;;;4901772;29;20018;-75
2022/08/09 03:37:01;;;;;;;;;;;18.90;71.20;;;;;;4907700;29;19967;-76
2022/08/09 03:39:29;;;;;;;;;;;18.90;71.30;;;;;;4898647;29;19939;-76
2022/08/09 03:41:55;;;;;;;;;;;18.90;71.60;;;;;;4903370;29;20347;-76
2022/08/09 03:44:24;;;;;;;;;;;18.90;71.50;;;;;;4880555;29;19942;-75
2022/08/09 03:46:52;;;;;;;;;;;18.80;71.40;;;;;;4905343;29;19938;-75
2022/08/09 03:49:20;;;;;;;;;;;18.80;71.40;;;;;;4905567;29;19989;-76
2022/08/09 03:51:48;;;;;;;;;;;18.80;71.60;;;;;;4899526;29;19975;-75
2022/08/09 03:54:15;;;;;;;;;;;18.80;71.70;;;;;;4903119;29;19927;-76
2022/08/09 03:56:43;;;;;;;;;;;18.80;71.90;;;;;;4902436;29;19938;-76
2022/08/09 03:59:10;;;;;;;;;;;18.70;71.90;;;;;;4898312;29;19931;-76
2022/08/09 04:01:38;;;;;;;;;;;18.70;72.10;;;;;;4903200;29;20302;-75
2022/08/09 04:04:07;;;;;;;;;;;18.70;72.00;;;;;;4903978;29;19939;-76
2022/08/09 04:06:35;;;;;;;;;;;18.70;72.10;;;;;;4906813;29;19958;-75
2022/08/09 04:09:05;;;;;;;;;;;18.70;72.10;;;;;;4885607;29;19936;-75
2022/08/09 04:11:38;;;;;;;;;;;18.60;72.10;;;;;;4904107;29;19931;-75
2022/08/09 04:14:05;;;;;;;;;;;18.60;72.10;;;;;;4907218;29;19986;-74
2022/08/09 04:16:32;;;;;;;;;;;18.60;72.10;;;;;;4921337;29;20267;-76
2022/08/09 04:18:59;;;;;;;;;;;18.50;72.00;;;;;;4921230;29;20031;-76
2022/08/09 04:21:27;;;;;;;;;;;18.50;72.00;;;;;;4920933;29;20048;-76
2022/08/09 04:23:54;;;;;;;;;;;18.50;72.10;;;;;;4924456;29;19962;-75
2022/08/09 04:26:21;;;;;;;;;;;18.50;72.20;;;;;;4901930;29;19943;-75
2022/08/09 04:28:47;;;;;;;;;;;18.50;72.30;;;;;;4900964;29;20405;-76
2022/08/09 04:31:14;;;;;;;;;;;18.40;72.20;;;;;;4915347;29;19954;-75
2022/08/09 04:33:42;;;;;;;;;;;18.40;72.20;;;;;;4923859;29;19930;-75
2022/08/09 04:36:09;;;;;;;;;;;18.30;72.10;;;;;;4918559;29;20237;-75
2022/08/09 04:38:37;;;;;;;;;;;18.30;72.20;;;;;;4922856;29;19966;-75
2022/08/09 04:41:04;;;;;;;;;;;18.30;72.30;;;;;;4919362;29;20125;-75
2022/08/09 04:43:30;;;;;;;;;;;18.30;72.40;;;;;;4914841;29;19936;-76
2022/08/09 04:45:57;;;;;;;;;;;18.20;72.30;;;;;;4917902;29;20585;-75
2022/08/09 04:48:24;;;;;;;;;;;18.20;72.30;;;;;;4913890;29;19934;-75
2022/08/09 04:50:51;;;;;;;;;;;18.20;72.40;;;;;;4912905;29;20041;-75
2022/08/09 04:53:18;;;;;;;;;;;18.20;72.40;;;;;;4918645;29;20401;-75
2022/08/09 04:55:46;;;;;;;;;;;18.10;72.40;;;;;;4913227;29;20049;-75
2022/08/09 04:58:13;;;;;;;;;;;18.10;72.40;;;;;;4920633;29;21637;-77
2022/08/09 05:00:40;;;;;;;;;;;18.10;72.50;;;;;;4912593;29;20381;-76
2022/08/09 05:03:07;;;;;;;;;;;18.10;72.50;;;;;;4914306;29;20192;-76
2022/08/09 05:05:34;;;;;;;;;;;18.10;72.60;;;;;;4921760;29;20465;-77
2022/08/09 05:08:00;;;;;;;;;;;18.00;72.70;;;;;;4913922;29;19938;-75
2022/08/09 05:10:27;;;;;;;;;;;18.00;72.80;;;;;;4913582;29;19927;-75
2022/08/09 05:12:55;;;;;;;;;;;18.00;72.80;;;;;;4914946;29;20008;-75
2022/08/09 05:15:23;;;;;;;;;;;18.10;73.20;;;;;;4918598;29;19935;-75
2022/08/09 05:17:50;;;;;;;;;;;18.10;72.90;;;;;;4922566;29;19934;-76
2022/08/09 05:20:17;;;;;;;;;;;18.10;72.90;;;;;;4916277;29;19935;-76
2022/08/09 05:22:43;;;;;;;;;;;18.00;72.80;;;;;;4915262;29;20424;-75
2022/08/09 05:25:11;;;;;;;;;;;18.00;72.70;;;;;;4913253;29;19932;-74
2022/08/09 05:27:37;;;;;;;;;;;18.00;72.80;;;;;;4915331;29;19927;-75
2022/08/09 05:30:06;;;;;;;;;;;18.00;72.90;;;;;;4921357;29;19958;-75
2022/08/09 05:32:33;;;;;;;;;;;18.00;72.90;;;;;;4915606;29;19938;-75
2022/08/09 05:35:00;;;;;;;;;;;18.00;72.90;;;;;;4920694;29;20025;-76
2022/08/09 05:37:27;;;;;;;;;;;17.90;72.70;;;;;;4917372;29;19934;-76
2022/08/09 05:39:54;;;;;;;;;;;17.90;72.60;;;;;;4917630;29;19927;-75
2022/08/09 05:42:20;;;;;;;;;;;17.90;72.10;;;;;;4912329;29;19927;-76
2022/08/09 05:44:47;;;;;;;;;;;17.80;73.10;;;;;;4914785;29;19931;-76
2022/08/09 05:47:15;;;;;;;;;;;17.70;73.20;;;;;;4923684;29;19974;-76
2022/08/09 05:49:42;;;;;;;;;;;17.80;73.40;;;;;;4921379;29;20488;-76
2022/08/09 05:52:09;;;;;;;;;;;17.80;74.30;;;;;;4902951;29;20369;-75
2022/08/09 05:54:36;;;;;;;;;;;17.90;74.80;;;;;;4922649;29;19977;-75
2022/08/09 05:57:03;;;;;;;;;;;17.90;75.50;;;;;;4903990;29;20029;-76
2022/08/09 05:59:30;;;;;;;;;;;17.90;74.60;;;;;;4930817;29;19927;-76
2022/08/09 06:01:57;;;;;;;;;;;17.80;74.70;;;;;;4923720;29;19985;-76
2022/08/09 06:04:25;;;;;;;;;;;17.90;74.80;;;;;;4914504;29;19938;-76
2022/08/09 06:06:52;;;;;;;;;;;17.80;74.90;;;;;;4921633;29;20015;-75
2022/08/09 06:09:19;;;;;;;;;;;17.80;75.20;;;;;;4922550;29;19938;-76
2022/08/09 06:11:46;;;;;;;;;;;17.80;75.00;;;;;;4923627;29;21734;-76
2022/08/09 06:14:13;;;;;;;;;;;17.80;75.00;;;;;;4924256;29;19938;-76
2022/08/09 06:16:40;;;;;;;;;;;17.90;75.10;;;;;;4921323;29;20445;-76
2022/08/09 06:19:07;;;;;;;;;;;17.90;75.00;;;;;;4931799;29;19944;-75
2022/08/09 06:21:35;;;;;;;;;;;17.90;75.10;;;;;;4923537;29;20275;-75
2022/08/09 06:24:02;;;;;;;;;;;18.00;75.10;;;;;;4912073;29;19935;-76
2022/08/09 06:26:29;;;;;;;;;;;18.00;75.10;;;;;;4901448;29;19939;-76
2022/08/09 06:28:56;;;;;;;;;;;18.00;75.10;;;;;;4923479;29;19943;-76
2022/08/09 06:31:23;;;;;;;;;;;18.00;75.10;;;;;;4916337;29;19930;-76
2022/08/09 06:33:50;;;;;;;;;;;18.00;75.10;;;;;;4916798;29;19950;-76
2022/08/09 06:36:17;;;;;;;;;;;18.00;75.20;;;;;;4917791;29;20077;-76
2022/08/09 06:38:45;;;;;;;;;;;18.10;75.30;;;;;;4925359;29;19954;-76
2022/08/09 06:41:12;;;;;;;;;;;18.10;75.50;;;;;;4923804;29;19931;-76
2022/08/09 06:43:39;;;;;;;;;;;18.10;75.60;;;;;;4927924;29;19927;-76
2022/08/09 06:46:06;;;;;;;;;;;18.10;75.80;;;;;;4909158;29;20287;-77
2022/08/09 06:48:32;;;;;;;;;;;18.20;76.00;;;;;;4927401;29;20026;-76
2022/08/09 06:50:59;;;;;;;;;;;18.20;76.00;;;;;;4924811;29;20101;-76
2022/08/09 06:53:26;;;;;;;;;;;18.20;76.10;;;;;;4926846;29;20013;-76
2022/08/09 06:55:54;;;;;;;;;;;18.30;76.40;;;;;;4924021;29;19963;-76
2022/08/09 06:58:21;;;;;;;;;;;18.30;76.60;;;;;;4927499;29;19926;-76
2022/08/09 07:00:48;;;;;;;;;;;18.30;76.70;;;;;;4929858;29;19963;-76
2022/08/09 07:03:15;;;;;;;;;;;18.40;76.80;;;;;;4926643;29;20454;-76
2022/08/09 07:05:41;;;;;;;;;;;18.40;76.80;;;;;;4908629;29;20868;-76
2022/08/09 07:08:08;;;;;;;;;;;18.40;76.80;;;;;;4930117;29;20385;-77
2022/08/09 07:10:35;;;;;;;;;;;18.40;76.80;;;;;;4910046;29;19982;-76
2022/08/09 07:13:03;;;;;;;;;;;18.40;76.90;;;;;;4916714;29;19926;-77
2022/08/09 07:15:30;;;;;;;;;;;18.50;76.90;;;;;;4925980;29;19970;-76
2022/08/09 07:17:57;;;;;;;;;;;18.50;76.90;;;;;;4928539;29;19961;-76
2022/08/09 07:20:24;;;;;;;;;;;18.50;76.90;;;;;;4924615;29;19935;-76
2022/08/09 07:22:51;;;;;;;;;;;18.50;77.00;;;;;;4922094;29;19926;-76
2022/08/09 07:25:18;;;;;;;;;;;18.50;76.90;;;;;;4927526;29;19986;-76
2022/08/09 07:27:46;;;;;;;;;;;18.60;77.00;;;;;;4910377;29;19966;-76
2022/08/09 07:30:14;;;;;;;;;;;18.60;76.90;;;;;;4925046;29;20305;-76
2022/08/09 07:32:41;;;;;;;;;;;18.60;77.10;;;;;;4914368;29;19978;-76
2022/08/09 07:35:09;;;;;;;;;;;18.60;77.00;;;;;;4928965;29;19927;-76
2022/08/09 07:37:36;;;;;;;;;;;18.60;77.00;;;;;;4931195;29;19927;-76
2022/08/09 07:40:04;;;;;;;;;;;18.70;77.20;;;;;;4929875;29;20472;-78
2022/08/09 07:42:30;;;;;;;;;;;18.70;77.20;;;;;;4924787;29;19934;-76
2022/08/09 07:44:57;;;;;;;;;;;18.70;77.20;;;;;;4930684;29;20353;-77
2022/08/09 07:47:26;;;;;;;;;;;18.70;77.20;;;;;;4920274;29;19962;-76
2022/08/09 07:49:53;;;;;;;;;;;18.70;77.30;;;;;;4931474;29;19941;-76
2022/08/09 07:52:19;;;;;;;;;;;18.80;77.50;;;;;;4930307;29;19938;-77
2022/08/09 07:54:46;;;;;;;;;;;18.80;77.60;;;;;;4928247;29;19990;-76
2022/08/09 07:57:13;;;;;;;;;;;18.80;77.60;;;;;;4930647;29;20143;-77
2022/08/09 07:59:40;;;;;;;;;;;18.80;77.60;;;;;;4930711;29;20283;-76
2022/08/09 08:02:07;;;;;;;;;;;18.80;77.60;;;;;;4927137;29;20014;-76
2022/08/09 08:04:36;;;;;;;;;;;18.80;77.50;;;;;;4927261;29;19974;-76
2022/08/09 08:07:03;;;;;;;;;;;18.90;77.60;;;;;;4926910;29;20386;-76
2022/08/09 08:09:30;;;;;;;;;;;18.90;77.60;;;;;;4928097;29;20026;-77
2022/08/09 08:11:57;;;;;;;;;;;18.90;77.70;;;;;;4914590;29;19935;-77
2022/08/09 08:14:24;;;;;;;;;;;18.90;77.70;;;;;;4928994;29;19939;-77
2022/08/09 08:16:50;;;;;;;;;;;18.90;77.50;;;;;;4937186;29;19926;-77
2022/08/09 08:19:17;;;;;;;;;;;18.90;77.60;;;;;;4913504;29;19939;-77
2022/08/09 08:21:45;;;;;;;;;;;18.90;77.60;;;;;;4916457;29;20029;-77
2022/08/09 08:24:12;;;;;;;;;;;19.00;77.80;;;;;;4917357;29;20452;-77
2022/08/09 08:26:39;;;;;;;;;;;19.00;77.90;;;;;;4927992;29;19927;-77
2022/08/09 08:29:06;;;;;;;;;;;19.00;77.90;;;;;;4930539;29;19954;-77
2022/08/09 08:31:33;;;;;;;;;;;19.00;77.80;;;;;;4925400;29;19927;-77
2022/08/09 08:33:59;;;;;;;;;;;19.00;77.80;;;;;;4913451;29;19989;-77
2022/08/09 08:36:26;;;;;;;;;;;19.00;77.90;;;;;;4929420;29;19927;-77
2022/08/09 08:38:54;;;;;;;;;;;19.00;77.80;;;;;;4930875;29;19935;-77
2022/08/09 08:41:22;;;;;;;;;;;19.00;77.80;;;;;;4927007;29;19926;-77
2022/08/09 08:43:49;;;;;;;;;;;19.00;77.90;;;;;;4915113;29;19958;-77
2022/08/09 08:46:17;;;;;;;;;;;19.00;77.90;;;;;;4927667;29;19927;-77
2022/08/09 08:48:44;;;;;;;;;;;19.00;77.90;;;;;;4920149;29;19926;-77
2022/08/09 08:51:11;;;;;;;;;;;19.10;78.10;;;;;;4925210;29;19931;-77
2022/08/09 08:53:38;;;;;;;;;;;19.10;78.00;;;;;;4929944;29;19926;-77
2022/08/09 08:56:06;;;;;;;;;;;19.10;78.00;;;;;;4916653;29;19946;-77
2022/08/09 08:58:35;;;;;;;;;;;19.20;78.10;;;;;;4930212;29;20017;-77
2022/08/09 09:01:02;;;;;;;;;;;19.20;78.10;;;;;;4927757;29;19938;-77
2022/08/09 09:03:33;;;;;;;;;;;19.20;78.70;;;;;;4928713;29;20013;-77
2022/08/09 09:06:01;;;;;;;;;;;19.20;78.00;;;;;;4925369;29;19982;-77
2022/08/09 09:08:31;;;;;;;;;;;19.30;78.10;;;;;;4916724;29;20424;-77
2022/08/09 09:11:00;;;;;;;;;;;19.30;78.10;;;;;;4926841;29;20402;-77
2022/08/09 09:13:29;;;;;;;;;;;19.30;78.00;;;;;;4929460;29;19990;-77
2022/08/09 09:15:56;;;;;;;;;;;19.30;78.00;;;;;;4924022;29;19927;-77
2022/08/09 09:18:22;;;;;;;;;;;19.30;78.00;;;;;;4929854;29;20379;-77
2022/08/09 09:20:49;;;;;;;;;;;19.30;77.90;;;;;;4926763;29;19930;-77
2022/08/09 09:23:17;;;;;;;;;;;19.30;78.00;;;;;;4929479;29;20542;-77
2022/08/09 09:25:44;;;;;;;;;;;19.40;78.10;;;;;;4911763;29;19933;-77
2022/08/09 09:28:12;;;;;;;;;;;19.40;77.90;;;;;;4928372;29;20726;-77
2022/08/09 09:30:53;;;;;;;;;;;19.40;77.70;;;;;;4929132;29;20361;-77
2022/08/09 09:33:20;;;;;;;;;;;19.50;77.80;;;;;;4925867;29;19966;-77
2022/08/09 09:35:54;;;;;;;;;;;19.50;77.50;;;;;;4929551;29;19934;-77
2022/08/09 09:38:21;;;;;;;;;;;19.50;77.20;;;;;;4927858;29;19933;-77
2022/08/09 09:40:48;;;;;;;;;;;19.50;76.80;;;;;;4928127;29;19981;-77
2022/08/09 09:43:19;;;;;;;;;;;19.50;76.60;;;;;;4911066;29;19931;-77
2022/08/09 09:45:50;;;;;;;;;;;19.50;76.50;;;;;;4911164;29;19937;-77
2022/08/09 09:48:18;;;;;;;;;;;19.50;76.60;;;;;;4930471;29;20019;-77
2022/08/09 09:50:46;;;;;;;;;;;19.60;76.30;;;;;;4907107;29;19930;-77
2022/08/09 09:53:14;;;;;;;;;;;19.60;76.10;;;;;;4931238;29;19926;-77
2022/08/09 09:55:50;;;;;;;;;;;19.60;76.00;;;;;;4929801;29;19930;-77
2022/08/09 09:58:16;;;;;;;;;;;19.60;76.00;;;;;;4926805;29;19927;-77
2022/08/09 10:00:44;;;;;;;;;;;19.60;76.00;;;;;;4926296;29;20495;-77
2022/08/09 10:03:11;;;;;;;;;;;19.70;76.00;;;;;;4930783;29;20017;-78
2022/08/09 10:05:56;;;;;;;;;;;19.70;75.90;;;;;;4927768;29;19942;-77
2022/08/09 10:08:23;;;;;;;;;;;19.70;75.80;;;;;;4926553;29;19927;-77
2022/08/09 10:10:50;;;;;;;;;;;19.70;75.80;;;;;;4924757;29;20041;-77
2022/08/09 10:13:17;;;;;;;;;;;19.70;75.80;;;;;;4924605;29;20333;-77
2022/08/09 10:15:48;;;;;;;;;;;19.70;75.60;;;;;;4913454;29;19934;-77
2022/08/09 10:18:16;;;;;;;;;;;19.80;76.20;;;;;;4927892;29;20006;-77
2022/08/09 10:20:44;;;;;;;;;;;19.80;75.40;;;;;;4927873;29;19927;-77
2022/08/09 10:23:16;;;;;;;;;;;19.80;75.50;;;;;;4925804;29;19955;-77
2022/08/09 10:25:44;;;;;;;;;;;19.80;75.20;;;;;;4929376;29;20338;-77
2022/08/09 10:28:11;;;;;;;;;;;19.80;75.00;;;;;;4928431;29;21443;-77
2022/08/09 10:30:38;;;;;;;;;;;19.80;75.30;;;;;;4928686;29;19926;-77
2022/08/09 10:33:05;;;;;;;;;;;19.80;75.10;;;;;;4926276;29;20438;-76
2022/08/09 10:35:32;;;;;;;;;;;19.80;75.00;;;;;;4909380;29;19927;-77
2022/08/09 10:38:00;;;;;;;;;;;19.90;74.80;;;;;;4929322;29;20648;-77
2022/08/09 10:40:27;;;;;;;;;;;19.90;74.40;;;;;;4922361;29;19934;-77
2022/08/09 10:42:54;;;;;;;;;;;19.90;74.10;;;;;;4920972;29;19935;-76
2022/08/09 10:45:21;;;;;;;;;;;19.90;73.70;;;;;;4919463;29;19938;-77
2022/08/09 10:47:55;;;;;;;;;;;20.00;73.70;;;;;;4920514;29;19982;-77
2022/08/09 10:51:05;;;;;;;;;;;19.90;73.50;;;;;;4917288;29;19957;-78
2022/08/09 10:53:27;;;;;;;;;;;20.00;73.60;;;;;;4923379;29;19933;-78
2022/08/09 10:56:09;;;;;;;;;;;20.00;73.60;;;;;;4916420;29;19986;-79
2022/08/09 10:58:36;;;;;;;;;;;20.00;73.40;;;;;;4914982;29;19938;-77
2022/08/09 11:01:03;;;;;;;;;;;20.10;73.40;;;;;;4908790;29;19935;-77
2022/08/09 11:03:30;;;;;;;;;;;20.00;73.40;;;;;;4911704;29;22098;-77
2022/08/09 11:06:15;;;;;;;;;;;20.00;73.50;;;;;;4930072;29;19930;-78
2022/08/09 11:08:44;;;;;;;;;;;20.10;73.60;;;;;;4906596;29;20454;-77
2022/08/09 11:11:11;;;;;;;;;;;20.10;72.90;;;;;;4932434;29;19942;-77
2022/08/09 11:13:38;;;;;;;;;;;20.10;72.90;;;;;;4930305;29;20000;-78
2022/08/09 11:16:23;;;;;;;;;;;20.10;72.70;;;;;;4929839;29;19990;-76
2022/08/09 11:18:51;;;;;;;;;;;20.10;72.30;;;;;;4923937;29;19935;-78
2022/08/09 11:21:32;;;;;;;;;;;20.20;72.20;;;;;;4929985;29;20198;-78
2022/08/09 11:24:01;;;;;;;;;;;20.20;72.00;;;;;;4925731;29;19927;-78
2022/08/09 11:26:49;;;;;;;;;;;20.20;72.10;;;;;;4923646;29;19935;-78
2022/08/09 11:29:35;;;;;;;;;;;20.20;72.00;;;;;;4924490;29;19930;-78
2022/08/09 11:32:02;;;;;;;;;;;20.30;72.40;;;;;;4928838;29;19934;-78
2022/08/09 11:34:34;;;;;;;;;;;20.20;72.30;;;;;;4928740;29;20357;-79
2022/08/09 11:37:02;;;;;;;;;;;20.30;72.40;;;;;;4907800;29;19926;-78
2022/08/09 11:39:30;;;;;;;;;;;20.30;72.30;;;;;;4931245;29;19927;-78
2022/08/09 11:41:58;;;;;;;;;;;20.30;72.10;;;;;;4930271;29;19991;-78
2022/08/09 11:44:47;;;;;;;;;;;20.30;71.90;;;;;;4919086;29;19942;-78
2022/08/09 11:47:15;;;;;;;;;;;20.30;71.90;;;;;;4925895;29;20859;-77
2022/08/09 11:50:02;;;;;;;;;;;20.50;70.30;;;;;;4931553;29;19927;-78
2022/08/09 11:52:30;;;;;;;;;;;20.50;70.50;;;;;;4930358;29;19927;-78
2022/08/09 11:55:15;;;;;;;;;;;20.50;70.80;;;;;;4931531;29;19938;-78
2022/08/09 11:57:43;;;;;;;;;;;20.40;71.20;;;;;;4930571;29;20522;-78
2022/08/09 12:00:11;;;;;;;;;;;20.40;70.90;;;;;;4925900;29;19935;-78
2022/08/09 12:02:38;;;;;;;;;;;20.50;70.60;;;;;;4932306;29;19934;-79
2022/08/09 12:05:05;;;;;;;;;;;20.40;70.40;;;;;;4932673;29;19938;-78
2022/08/09 12:07:32;;;;;;;;;;;20.50;70.20;;;;;;4932290;29;19934;-79
2022/08/09 12:09:59;;;;;;;;;;;20.50;69.70;;;;;;4927486;29;19950;-79
2022/08/09 12:12:26;;;;;;;;;;;20.50;69.70;;;;;;4929908;29;19982;-79
2022/08/09 12:14:54;;;;;;;;;;;20.50;69.30;;;;;;4930409;29;19933;-78
2022/08/09 12:17:21;;;;;;;;;;;20.60;69.30;;;;;;4925755;29;19931;-79
2022/08/09 12:19:48;;;;;;;;;;;20.60;69.40;;;;;;4932076;29;20290;-79
2022/08/09 12:22:19;;;;;;;;;;;20.60;69.30;;;;;;4913772;29;20693;-78
2022/08/09 12:24:45;;;;;;;;;;;20.60;68.90;;;;;;4927815;29;20305;-78
2022/08/09 12:27:18;;;;;;;;;;;20.70;68.70;;;;;;4922862;29;20049;-78
2022/08/09 12:29:52;;;;;;;;;;;20.70;68.60;;;;;;4925865;29;19935;-77
2022/08/09 12:32:24;;;;;;;;;;;20.90;68.40;;;;;;4923134;29;20351;-79
2022/08/09 12:34:52;;;;;;;;;;;21.00;68.60;;;;;;4927381;29;19927;-83
2022/08/09 12:37:30;;;;;;;;;;;21.00;67.80;;;;;;4928301;29;20435;-78
2022/08/09 12:40:04;;;;;;;;;;;21.00;67.90;;;;;;4931682;29;20001;-77
2022/08/09 12:42:31;;;;;;;;;;;21.10;68.20;;;;;;4925767;29;19930;-77
2022/08/09 12:44:58;;;;;;;;;;;21.10;68.50;;;;;;4925831;29;20009;-78
2022/08/09 12:47:27;;;;;;;;;;;21.10;68.80;;;;;;4927036;29;19990;-77
2022/08/09 12:52:38;;;;;;;;;;;21.20;68.10;;;;;;4923477;29;19922;-76
2022/08/09 12:55:06;;;;;;;;;;;21.20;67.90;;;;;;4929453;29;19933;-76
2022/08/09 12:57:38;;;;;;;;;;;21.20;67.70;;;;;;4927308;29;19926;-75
2022/08/09 13:00:12;;;;;;;;;;;21.30;68.00;;;;;;4932150;29;19927;-77
2022/08/09 13:02:49;;;;;;;;;;;21.30;67.80;;;;;;4929697;29;22382;-75
2022/08/09 13:05:16;;;;;;;;;;;21.30;68.80;;;;;;4922674;29;19990;-78
2022/08/09 13:07:43;;;;;;;;;;;21.30;68.20;;;;;;4922725;29;19935;-76
2022/08/09 13:10:10;;;;;;;;;;;21.40;68.00;;;;;;4917082;29;20402;-76
2022/08/09 13:12:47;;;;;;;;;;;21.40;68.60;;;;;;4919388;29;19935;-76
2022/08/09 13:15:13;;;;;;;;;;;21.50;68.70;;;;;;4924760;29;19993;-76
2022/08/09 13:17:41;;;;;;;;;;;21.50;68.40;;;;;;4927596;29;19931;-76
2022/08/09 13:20:10;;;;;;;;;;;21.50;68.40;;;;;;4924016;29;19931;-79
2022/08/09 13:22:47;;;;;;;;;;;21.60;68.40;;;;;;4867758;29;19984;-76
2022/08/09 13:25:14;;;;;;;;;;;21.60;67.90;;;;;;4915177;29;19934;-77
2022/08/09 13:27:41;;;;;;;;;;;21.70;68.60;;;;;;4913426;29;19927;-75
2022/08/09 13:30:09;;;;;;;;;;;21.70;68.50;;;;;;4916218;29;20287;-78
2022/08/09 13:32:43;;;;;;;;;;;21.80;68.10;;;;;;4906797;29;19934;-76
2022/08/09 13:35:12;;;;;;;;;;;21.80;68.40;;;;;;4917506;29;19927;-77
2022/08/09 13:37:39;;;;;;;;;;;21.80;68.40;;;;;;4907691;29;20041;-77
2022/08/09 13:40:07;;;;;;;;;;;21.90;68.50;;;;;;4922438;29;19926;-76
2022/08/09 13:42:36;;;;;;;;;;;21.90;68.90;;;;;;4917099;29;20285;-77
2022/08/09 13:45:03;;;;;;;;;;;22.00;68.50;;;;;;4919416;29;19935;-76
2022/08/09 13:47:31;;;;;;;;;;;22.00;67.90;;;;;;4919203;29;20003;-77
2022/08/09 13:49:58;;;;;;;;;;;22.10;68.10;;;;;;4920672;29;20021;-77
2022/08/09 13:52:26;;;;;;;;;;;22.10;68.60;;;;;;4921745;29;20531;-77
2022/08/09 13:54:54;;;;;;;;;;;22.20;68.40;;;;;;4926105;29;19927;-76
2022/08/09 13:57:21;;;;;;;;;;;22.30;67.50;;;;;;4919980;29;19934;-77
2022/08/09 13:59:48;;;;;;;;;;;22.30;67.50;;;;;;4921701;29;19949;-77
2022/08/09 14:02:15;;;;;;;;;;;22.30;67.70;;;;;;4915217;29;20026;-76
2022/08/09 14:04:42;;;;;;;;;;;22.40;68.10;;;;;;4923236;29;19926;-78
2022/08/09 14:07:09;;;;;;;;;;;22.40;68.60;;;;;;4924761;29;19931;-77
2022/08/09 14:09:37;;;;;;;;;;;22.40;68.50;;;;;;4921774;29;20026;-77
2022/08/09 14:12:05;;;;;;;;;;;22.50;68.10;;;;;;4919485;29;19931;-76
2022/08/09 14:14:32;;;;;;;;;;;22.60;68.60;;;;;;4919234;29;19927;-77
2022/08/09 14:16:59;;;;;;;;;;;22.60;68.90;;;;;;4924362;29;19938;-77
2022/08/09 14:19:26;;;;;;;;;;;22.60;69.10;;;;;;4931076;29;19927;-79
2022/08/09 14:21:53;;;;;;;;;;;23.80;64.20;;;;;;4929160;29;19966;-79
2022/08/09 14:24:20;;;;;;;;;;;23.90;64.80;;;;;;4915953;29;19942;-79
2022/08/09 14:26:48;;;;;;;;;;;24.20;63.80;;;;;;4930974;29;20013;-81
2022/08/09 14:29:17;;;;;;;;;;;24.40;63.50;;;;;;4932600;29;19986;-80
2022/08/09 14:31:44;;;;;;;;;;;24.70;63.50;;;;;;4927697;29;19927;-81
2022/08/09 14:34:12;;;;;;;;;;;24.80;61.30;;;;;;4914973;29;19926;-82
2022/08/09 14:36:38;;;;;;;;;;;25.00;62.40;;;;;;4930900;29;20025;-82
2022/08/09 14:39:05;;;;;;;;;;;25.10;61.60;;;;;;4922940;29;19931;-82
2022/08/09 14:41:32;;;;;;;;;;;25.10;60.80;;;;;;4927110;29;19927;-83
2022/08/09 14:44:00;;;;;;;;;;;25.10;60.90;;;;;;4926950;29;19935;-81
2022/08/09 14:46:27;;;;;;;;;;;25.20;60.80;;;;;;4932860;29;19961;-82
2022/08/09 14:48:54;;;;;;;;;;;25.30;59.90;;;;;;4925792;29;19950;-82
2022/08/09 14:51:21;;;;;;;;;;;25.10;58.30;;;;;;4911740;29;19927;-82
2022/08/09 14:53:48;;;;;;;;;;;25.10;58.00;;;;;;4926842;29;20001;-81
2022/08/09 14:56:15;;;;;;;;;;;25.00;57.40;;;;;;4932632;29;19927;-81
2022/08/09 14:58:42;;;;;;;;;;;25.00;57.70;;;;;;4935522;29;19989;-82
2022/08/09 15:01:10;;;;;;;;;;;24.90;57.50;;;;;;4927041;29;19986;-86